Time;durP1;ratioP1;P1;durP2;ratioP2;P2;SDS_P1;SDS_P2;PMS_P1;PMS_P2;Temp;Humidity;BMP_temperature;BMP_pressure;BME280_temperature;BME280_humidity;BME280_pressure;Samples;Min_cycle;Max_cycle;Signal;HPM_P1;HPM_P2
2024/04/14 00:00:05;;;;;;;;;;;;;;;13.18;75.69;98349.42;104092;1274;72437;-43
2024/04/14 00:02:37;;;;;;;;;;;;;;;13.17;75.82;98347.27;104421;1279;62923;-41
2024/04/14 00:05:04;;;;;;;;;;;;;;;13.16;75.96;98346.06;104466;1274;63031;-40
2024/04/14 00:07:31;;;;;;;;;;;;;;;13.16;75.96;98344.23;104414;1277;76065;-40
2024/04/14 00:09:58;;;;;;;;;;;;;;;13.14;75.92;98342.98;104037;1279;65846;-40
2024/04/14 00:12:26;;;;;;;;;;;;;;;13.12;76.11;98342.31;103939;1274;71400;-40
2024/04/14 00:14:53;;;;;;;;;;;;;;;13.09;76.27;98332.21;104443;1274;62878;-40
2024/04/14 00:17:20;;;;;;;;;;;;;;;13.04;76.52;98330.71;104160;1274;62945;-40
2024/04/14 00:19:52;;;;;;;;;;;;;;;13.00;76.72;98332.14;104196;1280;75682;-40
2024/04/14 00:22:19;;;;;;;;;;;;;;;12.95;77.08;98332.39;104153;1274;66281;-40
2024/04/14 00:24:47;;;;;;;;;;;;;;;12.91;77.32;98341.60;104213;1277;72332;-40
2024/04/14 00:27:14;;;;;;;;;;;;;;;12.88;77.52;98335.80;104295;1280;62929;-41
2024/04/14 00:29:41;;;;;;;;;;;;;;;12.85;77.81;98336.48;104257;1279;62904;-43
2024/04/14 00:32:08;;;;;;;;;;;;;;;12.83;77.92;98338.98;104039;1279;76087;-39
2024/04/14 00:34:35;;;;;;;;;;;;;;;12.81;78.11;98338.19;103935;1274;66370;-41
2024/04/14 00:37:02;;;;;;;;;;;;;;;12.79;78.28;98337.23;104359;1279;73521;-43
2024/04/14 00:39:29;;;;;;;;;;;;;;;12.77;78.33;98337.94;104355;1279;62927;-41
2024/04/14 00:41:56;;;;;;;;;;;;;;;12.73;78.54;98340.30;104444;1279;62908;-41
2024/04/14 00:44:23;;;;;;;;;;;;;;;12.68;78.65;98337.48;104349;1278;76290;-40
2024/04/14 00:46:51;;;;;;;;;;;;;;;12.64;79.01;98333.41;104386;1274;66176;-40
2024/04/14 00:49:18;;;;;;;;;;;;;;;12.63;79.12;98338.39;104407;1278;72434;-41
2024/04/14 00:51:45;;;;;;;;;;;;;;;12.61;79.25;98337.25;104071;1279;62914;-41
2024/04/14 00:54:17;;;;;;;;;;;;;;;12.59;79.38;98333.13;103958;1275;63575;-40
2024/04/14 00:56:45;;;;;;;;;;;;;;;12.56;79.55;98341.40;104404;1279;76058;-40
2024/04/14 00:59:12;;;;;;;;;;;;;;;12.55;79.62;98342.02;104349;1274;65779;-41
2024/04/14 01:01:39;;;;;;;;;;;;;;;12.54;79.67;98341.27;104295;1280;72499;-42
2024/04/14 01:04:07;;;;;;;;;;;;;;;12.53;79.67;98340.13;104041;1273;62900;-41
2024/04/14 01:06:35;;;;;;;;;;;;;;;12.53;79.63;98337.81;104053;1279;62929;-42
2024/04/14 01:09:05;;;;;;;;;;;;;;;12.52;79.66;98340.98;104400;1278;76139;-42
2024/04/14 01:11:32;;;;;;;;;;;;;;;12.52;79.60;98339.06;104370;1274;66014;-41
2024/04/14 01:14:02;;;;;;;;;;;;;;;12.52;79.64;98338.42;104200;1278;72389;-41
2024/04/14 01:16:29;;;;;;;;;;;;;;;12.51;79.62;98339.30;104294;1274;62901;-41
2024/04/14 01:18:56;;;;;;;;;;;;;;;12.49;79.65;98337.34;104130;1274;63025;-41
2024/04/14 01:21:23;;;;;;;;;;;;;;;12.47;79.81;98340.06;104353;1278;76215;-40
2024/04/14 01:23:49;;;;;;;;;;;;;;;12.44;79.73;98341.72;104353;1279;67032;-39
2024/04/14 01:26:16;;;;;;;;;;;;;;;12.41;79.78;98335.42;104362;1274;72708;-42
2024/04/14 01:28:43;;;;;;;;;;;;;;;12.39;79.86;98330.90;104362;1280;62875;-41
2024/04/14 01:31:10;;;;;;;;;;;;;;;12.35;80.01;98327.73;104041;1274;62939;-42
2024/04/14 01:33:38;;;;;;;;;;;;;;;12.32;80.07;98331.48;104232;1279;76122;-41
2024/04/14 01:36:05;;;;;;;;;;;;;;;12.29;80.09;98330.56;104007;1273;66048;-41
2024/04/14 01:38:32;;;;;;;;;;;;;;;12.24;80.25;98332.52;104052;1277;71461;-42
2024/04/14 01:41:02;;;;;;;;;;;;;;;12.21;80.39;98326.07;104222;1274;63005;-44
2024/04/14 01:43:29;;;;;;;;;;;;;;;12.18;80.54;98324.69;104354;1274;62996;-42
2024/04/14 01:45:56;;;;;;;;;;;;;;;12.15;80.68;98321.81;104333;1279;76116;-41
2024/04/14 01:48:23;;;;;;;;;;;;;;;12.14;80.82;98324.57;104379;1274;63920;-41
2024/04/14 01:50:50;;;;;;;;;;;;;;;12.13;80.82;98319.92;104380;1279;71977;-40
2024/04/14 01:53:17;;;;;;;;;;;;;;;12.12;80.68;98314.89;104078;1278;62910;-40
2024/04/14 01:55:45;;;;;;;;;;;;;;;12.10;80.79;98312.50;104080;1279;62929;-40
2024/04/14 01:58:12;;;;;;;;;;;;;;;12.08;80.73;98310.42;103957;1275;76072;-40
2024/04/14 02:00:40;;;;;;;;;;;;;;;12.04;80.91;98310.40;104051;1274;66057;-40
2024/04/14 02:03:07;;;;;;;;;;;;;;;12.00;80.81;98310.06;103916;1279;72576;-41
2024/04/14 02:05:34;;;;;;;;;;;;;;;11.96;80.93;98305.08;103856;1279;62875;-41
2024/04/14 02:08:02;;;;;;;;;;;;;;;11.92;80.98;98308.09;103949;1274;62908;-43
2024/04/14 02:10:29;;;;;;;;;;;;;;;11.88;81.34;98307.45;104038;1279;77212;-42
2024/04/14 02:12:56;;;;;;;;;;;;;;;11.85;81.40;98302.08;104052;1274;66070;-41
2024/04/14 02:15:23;;;;;;;;;;;;;;;11.83;81.71;98303.29;104411;1279;72591;-43
2024/04/14 02:17:50;;;;;;;;;;;;;;;11.82;81.63;98296.86;104063;1274;62910;-40
2024/04/14 02:20:17;;;;;;;;;;;;;;;11.82;81.83;98296.27;104421;1279;62900;-41
2024/04/14 02:22:45;;;;;;;;;;;;;;;11.83;81.69;98299.69;104278;1278;76076;-40
2024/04/14 02:25:12;;;;;;;;;;;;;;;11.84;81.57;98299.62;104432;1277;64886;-40
2024/04/14 02:27:40;;;;;;;;;;;;;;;11.86;81.50;98295.56;104389;1278;72621;-40
2024/04/14 02:30:07;;;;;;;;;;;;;;;11.86;81.37;98296.11;104269;1287;62896;-40
2024/04/14 02:32:34;;;;;;;;;;;;;;;11.85;81.25;98293.92;104019;1280;63438;-40
2024/04/14 02:35:01;;;;;;;;;;;;;;;11.85;81.17;98291.44;104378;1279;76140;-40
2024/04/14 02:37:29;;;;;;;;;;;;;;;11.85;81.20;98292.10;104359;1279;65826;-40
2024/04/14 02:39:56;;;;;;;;;;;;;;;11.84;81.12;98285.83;104355;1278;72477;-41
2024/04/14 02:42:23;;;;;;;;;;;;;;;11.85;81.00;98280.81;104085;1279;63343;-41
2024/04/14 02:44:50;;;;;;;;;;;;;;;11.87;80.72;98279.28;104517;1280;63470;-41
2024/04/14 02:47:17;;;;;;;;;;;;;;;11.87;80.66;98280.23;104301;1276;76165;-42
2024/04/14 02:49:44;;;;;;;;;;;;;;;11.87;80.32;98280.30;104412;1278;64931;-41
2024/04/14 02:52:11;;;;;;;;;;;;;;;11.88;80.10;98275.90;104437;1279;72623;-41
2024/04/14 02:54:38;;;;;;;;;;;;;;;11.89;79.73;98271.80;104141;1280;62883;-41
2024/04/14 02:57:06;;;;;;;;;;;;;;;11.89;79.63;98274.69;104277;1273;63013;-41
2024/04/14 02:59:34;;;;;;;;;;;;;;;11.89;79.49;98273.30;104347;1279;76115;-40
2024/04/14 03:02:01;;;;;;;;;;;;;;;11.89;79.42;98278.95;104083;1279;66264;-40
2024/04/14 03:04:28;;;;;;;;;;;;;;;11.89;79.38;98278.95;103791;1280;72821;-41
2024/04/14 03:06:56;;;;;;;;;;;;;;;11.88;79.37;98278.95;104129;1277;62929;-41
2024/04/14 03:09:23;;;;;;;;;;;;;;;11.86;79.09;98271.41;103911;1275;62866;-40
2024/04/14 03:11:50;;;;;;;;;;;;;;;11.87;78.95;98271.77;104030;1274;76736;-41
2024/04/14 03:14:17;;;;;;;;;;;;;;;11.88;78.92;98269.45;104015;1273;65974;-42
2024/04/14 03:16:44;;;;;;;;;;;;;;;11.86;78.96;98274.89;104155;1280;73005;-40
2024/04/14 03:19:11;;;;;;;;;;;;;;;11.83;78.57;98273.55;104043;1274;62868;-42
2024/04/14 03:21:38;;;;;;;;;;;;;;;11.82;78.39;98274.43;104465;1279;63000;-43
2024/04/14 03:24:05;;;;;;;;;;;;;;;11.83;78.20;98273.83;104388;1277;76357;-40
2024/04/14 03:26:32;;;;;;;;;;;;;;;11.85;78.03;98271.59;104369;1274;66253;-40
2024/04/14 03:28:59;;;;;;;;;;;;;;;11.87;77.88;98272.36;104433;1280;71654;-40
2024/04/14 03:31:26;;;;;;;;;;;;;;;11.91;77.60;98269.63;103902;1279;62866;-40
2024/04/14 03:33:54;;;;;;;;;;;;;;;11.94;77.36;98268.83;103839;1279;62924;-39
2024/04/14 03:36:21;;;;;;;;;;;;;;;11.96;77.35;98264.66;103945;1275;76131;-40
2024/04/14 03:38:48;;;;;;;;;;;;;;;11.96;77.13;98263.80;103845;1280;65016;-41
2024/04/14 03:41:15;;;;;;;;;;;;;;;11.96;76.71;98262.83;103989;1278;72649;-41
2024/04/14 03:43:42;;;;;;;;;;;;;;;11.97;76.66;98263.57;104000;1273;62896;-41
2024/04/14 03:46:10;;;;;;;;;;;;;;;11.98;76.46;98262.55;104387;1279;62885;-41
2024/04/14 03:48:37;;;;;;;;;;;;;;;12.01;76.03;98259.42;104253;1278;76034;-41
2024/04/14 03:51:05;;;;;;;;;;;;;;;12.07;75.67;98256.27;104250;1274;66103;-43
2024/04/14 03:53:31;;;;;;;;;;;;;;;12.12;75.45;98250.87;104269;1274;72672;-44
2024/04/14 03:55:58;;;;;;;;;;;;;;;12.19;74.92;98253.70;104020;1277;62917;-41
2024/04/14 03:58:25;;;;;;;;;;;;;;;12.26;74.29;98255.89;104121;1278;62904;-41
2024/04/14 04:00:53;;;;;;;;;;;;;;;12.33;74.02;98252.08;104042;1275;76176;-42
2024/04/14 04:03:20;;;;;;;;;;;;;;;12.36;74.13;98252.80;104285;1279;65216;-43
2024/04/14 04:05:56;;;;;;;;;;;;;;;12.37;73.76;98247.48;103892;1280;72390;-40
2024/04/14 04:08:23;;;;;;;;;;;;;;;12.39;73.63;98249.62;104083;1280;63467;-42
2024/04/14 04:10:57;;;;;;;;;;;;;;;12.40;73.56;98244.41;104150;1276;63537;-41
2024/04/14 04:13:23;;;;;;;;;;;;;;;12.40;73.63;98240.52;104362;1279;76442;-42
2024/04/14 04:16:01;;;;;;;;;;;;;;;12.42;73.45;98240.81;104394;1273;65936;-41
2024/04/14 04:18:28;;;;;;;;;;;;;;;12.47;73.50;98241.73;104411;1274;72880;-42
2024/04/14 04:20:57;;;;;;;;;;;;;;;12.46;73.52;98237.46;104173;1279;62888;-41
2024/04/14 04:23:24;;;;;;;;;;;;;;;12.40;74.04;98235.29;104042;1279;62978;-42
2024/04/14 04:25:51;;;;;;;;;;;;;;;12.26;74.86;98233.86;104209;1276;77333;-41
2024/04/14 04:28:18;;;;;;;;;;;;;;;12.06;75.71;98232.60;104377;1279;67339;-41
2024/04/14 04:30:45;;;;;;;;;;;;;;;11.92;76.79;98231.59;104381;1273;73087;-41
2024/04/14 04:33:12;;;;;;;;;;;;;;;11.78;77.64;98232.61;104375;1279;62888;-41
2024/04/14 04:35:39;;;;;;;;;;;;;;;11.70;78.04;98233.70;104260;1279;62917;-40
2024/04/14 04:38:06;;;;;;;;;;;;;;;11.69;78.39;98229.71;103817;1279;75208;-40
2024/04/14 04:40:33;;;;;;;;;;;;;;;11.73;78.71;98222.61;103942;1274;65361;-41
2024/04/14 04:43:01;;;;;;;;;;;;;;;11.79;78.67;98216.94;104092;1274;72337;-41
2024/04/14 04:45:28;;;;;;;;;;;;;;;11.87;78.47;98212.29;103941;1273;62811;-40
2024/04/14 04:47:55;;;;;;;;;;;;;;;11.96;78.74;98208.77;103890;1277;62923;-40
2024/04/14 04:50:22;;;;;;;;;;;;;;;11.99;79.11;98211.29;104001;1280;76119;-41
2024/04/14 04:52:49;;;;;;;;;;;;;;;11.95;79.33;98209.64;104014;1273;65388;-44
2024/04/14 04:55:15;;;;;;;;;;;;;;;11.91;79.71;98207.66;104023;1279;72707;-40
2024/04/14 04:57:42;;;;;;;;;;;;;;;11.88;80.00;98206.66;103999;1274;62848;-42
2024/04/14 05:00:10;;;;;;;;;;;;;;;11.87;80.33;98207.45;104221;1274;62994;-42
2024/04/14 05:02:37;;;;;;;;;;;;;;;11.89;80.64;98206.64;104340;1274;75489;-42
2024/04/14 05:05:04;;;;;;;;;;;;;;;11.91;80.34;98206.48;104470;1279;66025;-40
2024/04/14 05:07:32;;;;;;;;;;;;;;;12.00;80.67;98206.29;104445;1274;72410;-40
2024/04/14 05:09:59;;;;;;;;;;;;;;;12.05;80.89;98209.09;104500;1287;62870;-40
2024/04/14 05:12:27;;;;;;;;;;;;;;;12.11;81.06;98208.64;104450;1274;63355;-41
2024/04/14 05:14:55;;;;;;;;;;;;;;;12.14;81.52;98203.26;103882;1280;77067;-40
2024/04/14 05:17:22;;;;;;;;;;;;;;;12.18;81.67;98196.04;104343;1274;65697;-40
2024/04/14 05:19:49;;;;;;;;;;;;;;;12.26;80.72;98192.61;104776;1274;72424;-40
2024/04/14 05:22:16;;;;;;;;;;;;;;;12.38;80.34;98192.29;104437;1274;62894;-41
2024/04/14 05:24:43;;;;;;;;;;;;;;;12.50;80.47;98191.59;104223;1274;62892;-43
2024/04/14 05:27:10;;;;;;;;;;;;;;;12.58;80.53;98189.29;104172;1279;76222;-43
2024/04/14 05:29:38;;;;;;;;;;;;;;;12.63;80.26;98184.56;104066;1278;65950;-41
2024/04/14 05:32:05;;;;;;;;;;;;;;;12.69;80.29;98182.05;104022;1276;71366;-44
2024/04/14 05:34:33;;;;;;;;;;;;;;;12.76;79.75;98180.70;104339;1279;63009;-41
2024/04/14 05:37:00;;;;;;;;;;;;;;;12.85;79.33;98178.21;104121;1275;62949;-40
2024/04/14 05:39:27;;;;;;;;;;;;;;;12.95;78.89;98177.46;104341;1280;76106;-40
2024/04/14 05:41:55;;;;;;;;;;;;;;;13.06;78.51;98177.30;104391;1273;65090;-42
2024/04/14 05:44:23;;;;;;;;;;;;;;;13.16;77.86;98175.55;104183;1274;72679;-41
2024/04/14 05:46:50;;;;;;;;;;;;;;;13.27;77.23;98172.83;104190;1279;62917;-42
2024/04/14 05:49:20;;;;;;;;;;;;;;;13.38;76.36;98170.05;104263;1273;62990;-41
2024/04/14 05:51:47;;;;;;;;;;;;;;;13.49;75.55;98164.20;104391;1274;76508;-41
2024/04/14 05:54:14;;;;;;;;;;;;;;;13.59;74.94;98160.25;104383;1273;65903;-40
2024/04/14 05:56:41;;;;;;;;;;;;;;;13.68;74.11;98156.95;104262;1274;72730;-42
2024/04/14 05:59:08;;;;;;;;;;;;;;;13.76;73.43;98152.14;104040;1279;62895;-42
2024/04/14 06:01:35;;;;;;;;;;;;;;;13.82;72.94;98154.75;104163;1279;63321;-40
2024/04/14 06:04:02;;;;;;;;;;;;;;;13.88;72.56;98156.27;103999;1279;74964;-43
2024/04/14 06:06:30;;;;;;;;;;;;;;;13.94;72.36;98151.51;104365;1279;64874;-43
2024/04/14 06:08:57;;;;;;;;;;;;;;;14.00;71.81;98149.83;104357;1273;72674;-42
2024/04/14 06:11:24;;;;;;;;;;;;;;;14.05;71.24;98146.19;104311;1279;62914;-40
2024/04/14 06:13:51;;;;;;;;;;;;;;;14.12;70.89;98142.58;104052;1274;62935;-41
2024/04/14 06:16:18;;;;;;;;;;;;;;;14.20;70.63;98140.90;104077;1274;75156;-41
2024/04/14 06:18:45;;;;;;;;;;;;;;;14.29;70.70;98138.08;103993;1274;67025;-41
2024/04/14 06:21:12;;;;;;;;;;;;;;;14.41;70.50;98134.97;104159;1274;73685;-41
2024/04/14 06:23:39;;;;;;;;;;;;;;;14.52;69.82;98134.83;103981;1273;62790;-40
2024/04/14 06:26:07;;;;;;;;;;;;;;;14.64;68.86;98131.85;104178;1274;63003;-41
2024/04/14 06:28:34;;;;;;;;;;;;;;;14.73;68.56;98131.09;104020;1274;75360;-40
2024/04/14 06:31:01;;;;;;;;;;;;;;;14.82;68.24;98126.89;103876;1273;65581;-43
2024/04/14 06:33:29;;;;;;;;;;;;;;;14.90;67.54;98126.56;103918;1274;72526;-41
2024/04/14 06:35:57;;;;;;;;;;;;;;;14.97;67.85;98119.94;104144;1279;62894;-43
2024/04/14 06:38:24;;;;;;;;;;;;;;;15.00;68.00;98109.85;104406;1274;63083;-43
2024/04/14 06:40:51;;;;;;;;;;;;;;;14.98;68.18;98103.95;104399;1279;75123;-41
2024/04/14 06:43:18;;;;;;;;;;;;;;;14.94;68.74;98100.61;104434;1279;66957;-41
2024/04/14 06:45:52;;;;;;;;;;;;;;;14.92;69.14;98102.23;104327;1273;72650;-41
2024/04/14 06:48:19;;;;;;;;;;;;;;;14.93;69.69;98106.79;104381;1273;62900;-41
2024/04/14 06:50:46;;;;;;;;;;;;;;;14.95;69.60;98103.05;104401;1273;63096;-40
2024/04/14 06:53:14;;;;;;;;;;;;;;;14.99;69.74;98101.55;104367;1273;76236;-41
2024/04/14 06:55:43;;;;;;;;;;;;;;;15.04;69.94;98099.91;104197;1273;64773;-40
2024/04/14 06:58:10;;;;;;;;;;;;;;;15.09;69.94;98095.84;104012;1274;72455;-41
2024/04/14 07:00:37;;;;;;;;;;;;;;;15.16;69.78;98088.35;103876;1277;62879;-41
2024/04/14 07:03:08;;;;;;;;;;;;;;;15.23;69.60;98092.83;103792;1274;62964;-42
2024/04/14 07:05:35;;;;;;;;;;;;;;;15.29;69.46;98089.17;103937;1279;76208;-41
2024/04/14 07:08:02;;;;;;;;;;;;;;;15.37;69.29;98082.81;104060;1280;66151;-41
2024/04/14 07:10:29;;;;;;;;;;;;;;;15.46;69.10;98078.55;103980;1273;72687;-42
2024/04/14 07:12:56;;;;;;;;;;;;;;;15.56;68.97;98075.12;104284;1274;62883;-41
2024/04/14 07:15:23;;;;;;;;;;;;;;;15.65;68.70;98069.67;104388;1273;63006;-41
2024/04/14 07:17:50;;;;;;;;;;;;;;;15.75;68.98;98068.25;104293;1280;76274;-40
2024/04/14 07:20:17;;;;;;;;;;;;;;;15.88;68.80;98064.39;104282;1274;65932;-41
2024/04/14 07:22:44;;;;;;;;;;;;;;;16.00;68.21;98062.04;104336;1273;72433;-40
2024/04/14 07:25:11;;;;;;;;;;;;;;;16.11;68.14;98058.86;104138;1278;62917;-40
2024/04/14 07:27:38;;;;;;;;;;;;;;;16.23;67.68;98053.71;103888;1274;62923;-40
2024/04/14 07:30:06;;;;;;;;;;;;;;;16.34;67.19;98052.10;103930;1278;76349;-40
2024/04/14 07:32:33;;;;;;;;;;;;;;;16.48;66.93;98044.76;104064;1274;66337;-40
2024/04/14 07:35:00;;;;;;;;;;;;;;;16.62;66.30;98043.33;104196;1273;72454;-40
2024/04/14 07:37:27;;;;;;;;;;;;;;;16.75;65.77;98039.41;104005;1273;62836;-42
2024/04/14 07:39:54;;;;;;;;;;;;;;;16.89;64.62;98040.12;104019;1274;62914;-41
2024/04/14 07:42:21;;;;;;;;;;;;;;;17.04;62.91;98043.54;104085;1280;76238;-42
2024/04/14 07:44:47;;;;;;;;;;;;;;;17.18;61.54;98043.96;104837;1279;65118;-44
2024/04/14 07:47:14;;;;;;;;;;;;;;;17.32;60.30;98034.02;104395;1273;72544;-41
2024/04/14 07:49:41;;;;;;;;;;;;;;;17.44;59.97;98031.98;104114;1279;62866;-41
2024/04/14 07:52:09;;;;;;;;;;;;;;;17.56;59.86;98029.27;103923;1274;62933;-39
2024/04/14 07:54:36;;;;;;;;;;;;;;;17.67;59.29;98029.12;103899;1274;76316;-40
2024/04/14 07:57:05;;;;;;;;;;;;;;;17.77;58.94;98038.03;104010;1274;67104;-42
2024/04/14 07:59:32;;;;;;;;;;;;;;;17.85;57.86;98032.66;104023;1274;71529;-40
2024/04/14 08:01:59;;;;;;;;;;;;;;;17.91;58.13;98026.21;104181;1274;63248;-40
2024/04/14 08:04:26;;;;;;;;;;;;;;;18.00;58.46;98022.78;104121;1273;62907;-40
2024/04/14 08:06:53;;;;;;;;;;;;;;;18.10;57.61;98021.17;103992;1274;75372;-40
2024/04/14 08:09:21;;;;;;;;;;;;;;;18.18;56.92;98023.77;104250;1273;66246;-43
2024/04/14 08:11:48;;;;;;;;;;;;;;;18.24;55.92;98020.80;104368;1274;72397;-46
2024/04/14 08:14:15;;;;;;;;;;;;;;;18.27;56.32;98023.38;104158;1273;62941;-47
2024/04/14 08:16:42;;;;;;;;;;;;;;;18.33;55.77;98021.63;104039;1274;62968;-42
2024/04/14 08:19:09;;;;;;;;;;;;;;;18.39;55.85;98016.47;104283;1279;76140;-43
2024/04/14 08:21:36;;;;;;;;;;;;;;;18.47;55.48;98007.11;104371;1274;66297;-42
2024/04/14 08:24:06;;;;;;;;;;;;;;;18.55;55.95;98000.02;104329;1273;72375;-39
2024/04/14 08:26:34;;;;;;;;;;;;;;;18.66;55.35;97993.63;103950;1274;62999;-39
2024/04/14 08:29:01;;;;;;;;;;;;;;;18.75;54.85;97993.10;103853;1274;63549;-41
2024/04/14 08:31:28;;;;;;;;;;;;;;;18.78;54.73;97999.70;103977;1276;76245;-38
2024/04/14 08:33:55;;;;;;;;;;;;;;;18.81;54.25;97991.34;104286;1274;65641;-40
2024/04/14 08:36:22;;;;;;;;;;;;;;;18.85;54.66;97991.92;104357;1273;72839;-40
2024/04/14 08:38:49;;;;;;;;;;;;;;;18.94;54.44;97993.66;104114;1274;62907;-41
2024/04/14 08:41:17;;;;;;;;;;;;;;;19.04;54.23;97991.32;104177;1274;63003;-41
2024/04/14 08:43:44;;;;;;;;;;;;;;;19.11;54.18;97981.52;103995;1278;76071;-41
2024/04/14 08:46:12;;;;;;;;;;;;;;;19.19;54.67;97979.70;104011;1278;65892;-43
2024/04/14 08:48:41;;;;;;;;;;;;;;;19.26;53.83;97975.10;103996;1274;72820;-41
2024/04/14 08:51:09;;;;;;;;;;;;;;;19.31;53.43;97968.08;103955;1274;62888;-42
2024/04/14 08:53:36;;;;;;;;;;;;;;;19.35;53.37;97962.23;104169;1274;62945;-42
2024/04/14 08:56:03;;;;;;;;;;;;;;;19.40;53.46;97964.48;104303;1279;76232;-40
2024/04/14 08:58:32;;;;;;;;;;;;;;;19.48;53.47;97958.48;104211;1279;65655;-41
2024/04/14 09:01:02;;;;;;;;;;;;;;;19.56;53.40;97951.69;103893;1273;72476;-41
2024/04/14 09:03:31;;;;;;;;;;;;;;;19.59;53.43;97952.02;103854;1274;62824;-41
2024/04/14 09:06:00;;;;;;;;;;;;;;;19.62;52.29;97949.36;104083;1279;62891;-40
2024/04/14 09:08:28;;;;;;;;;;;;;;;19.61;52.72;97947.55;104270;1277;76925;-42
2024/04/14 09:10:55;;;;;;;;;;;;;;;19.61;52.31;97943.75;104211;1274;67079;-40
2024/04/14 09:13:26;;;;;;;;;;;;;;;19.58;52.72;97938.57;104006;1274;72328;-40
2024/04/14 09:15:56;;;;;;;;;;;;;;;19.62;53.12;97933.16;103939;1274;62998;-41
2024/04/14 09:18:23;;;;;;;;;;;;;;;19.73;53.26;97931.72;104223;1274;63006;-42
2024/04/14 09:20:50;;;;;;;;;;;;;;;19.85;52.42;97930.00;104039;1279;76260;-41
2024/04/14 09:23:18;;;;;;;;;;;;;;;19.95;52.29;97927.05;103945;1273;64926;-41
2024/04/14 09:25:45;;;;;;;;;;;;;;;20.06;52.44;97925.22;104171;1274;72657;-46
2024/04/14 09:28:12;;;;;;;;;;;;;;;20.15;52.30;97921.77;104177;1273;62901;-39
2024/04/14 09:30:39;;;;;;;;;;;;;;;20.24;52.77;97913.23;103931;1274;62993;-41
2024/04/14 09:33:06;;;;;;;;;;;;;;;20.39;52.39;97911.23;104293;1278;76201;-41
2024/04/14 09:35:33;;;;;;;;;;;;;;;20.51;51.75;97913.73;104142;1273;67351;-40
2024/04/14 09:38:01;;;;;;;;;;;;;;;20.57;51.03;97900.09;103821;1274;72371;-38
2024/04/14 09:40:29;;;;;;;;;;;;;;;20.58;51.10;97896.46;104091;1273;62843;-41
2024/04/14 09:42:58;;;;;;;;;;;;;;;20.59;50.62;97889.25;104345;1274;62964;-41
2024/04/14 09:45:25;;;;;;;;;;;;;;;20.59;50.38;97894.31;104277;1274;76222;-41
2024/04/14 09:47:55;;;;;;;;;;;;;;;20.56;50.23;97883.68;104362;1274;65553;-41
2024/04/14 09:50:23;;;;;;;;;;;;;;;20.56;50.49;97883.69;103985;1274;72636;-42
2024/04/14 09:52:51;;;;;;;;;;;;;;;20.62;50.49;97876.73;103969;1273;62901;-41
2024/04/14 09:55:21;;;;;;;;;;;;;;;20.71;49.55;97866.10;104166;1274;63596;-40
2024/04/14 09:57:51;;;;;;;;;;;;;;;20.77;49.15;97860.01;103992;1280;76718;-42
2024/04/14 10:00:18;;;;;;;;;;;;;;;20.81;49.30;97853.55;104229;1273;66032;-41
2024/04/14 10:02:59;;;;;;;;;;;;;;;20.87;49.08;97854.75;104095;1273;73426;-41
2024/04/14 10:05:26;;;;;;;;;;;;;;;20.93;48.70;97849.73;104283;1279;62894;-40
2024/04/14 10:07:53;;;;;;;;;;;;;;;20.97;49.06;97844.38;104008;1278;63632;-41
2024/04/14 10:10:23;;;;;;;;;;;;;;;21.10;48.51;97840.67;103873;1276;77072;-41
2024/04/14 10:12:51;;;;;;;;;;;;;;;21.23;48.28;97842.68;103867;1279;67276;-40
2024/04/14 10:15:19;;;;;;;;;;;;;;;21.35;46.72;97849.12;104239;1274;72504;-40
2024/04/14 10:17:48;;;;;;;;;;;;;;;21.34;46.30;97848.23;104308;1274;63352;-40
2024/04/14 10:20:16;;;;;;;;;;;;;;;21.27;46.00;97840.96;104078;1274;63026;-39
2024/04/14 10:22:44;;;;;;;;;;;;;;;21.26;46.70;97830.29;103881;1279;76977;-39
2024/04/14 10:25:17;;;;;;;;;;;;;;;21.33;46.46;97825.89;104036;1274;64119;-41
2024/04/14 10:27:45;;;;;;;;;;;;;;;21.41;46.22;97828.98;104089;1273;71922;-41
2024/04/14 10:30:20;;;;;;;;;;;;;;;21.49;45.66;97828.57;104026;1273;62936;-42
2024/04/14 10:32:47;;;;;;;;;;;;;;;21.56;45.51;97825.33;104098;1279;63066;-43
2024/04/14 10:35:18;;;;;;;;;;;;;;;21.62;44.96;97820.60;104344;1277;76206;-40
2024/04/14 10:37:54;;;;;;;;;;;;;;;21.66;44.93;97820.19;103903;1274;66126;-40
2024/04/14 10:40:22;;;;;;;;;;;;;;;21.68;44.91;97813.23;104175;1274;72529;-40
2024/04/14 10:42:49;;;;;;;;;;;;;;;21.77;44.07;97814.91;104027;1273;62944;-39
2024/04/14 10:45:25;;;;;;;;;;;;;;;21.85;44.19;97802.34;103894;1274;62891;-40
2024/04/14 10:47:54;;;;;;;;;;;;;;;22.00;43.44;97802.02;104148;1274;76043;-39
2024/04/14 10:50:21;;;;;;;;;;;;;;;22.15;42.15;97805.42;104241;1273;66528;-40
2024/04/14 10:52:48;;;;;;;;;;;;;;;22.22;41.61;97795.54;103913;1274;72420;-39
2024/04/14 10:55:15;;;;;;;;;;;;;;;22.31;41.60;97792.61;103980;1273;62966;-39
2024/04/14 10:57:42;;;;;;;;;;;;;;;22.45;41.56;97784.11;103917;1274;62952;-40
2024/04/14 11:00:09;;;;;;;;;;;;;;;22.58;41.56;97787.16;103973;1277;76159;-41
2024/04/14 11:02:37;;;;;;;;;;;;;;;22.72;41.51;97778.30;104145;1274;66262;-41
2024/04/14 11:05:04;;;;;;;;;;;;;;;22.78;41.43;97776.32;104085;1273;72550;-42
2024/04/14 11:07:31;;;;;;;;;;;;;;;22.83;40.98;97766.23;104018;1273;62917;-42
2024/04/14 11:09:58;;;;;;;;;;;;;;;23.01;40.63;97767.50;104537;1273;63003;-39
2024/04/14 11:12:25;;;;;;;;;;;;;;;23.22;38.60;97761.27;104105;1276;76287;-42
2024/04/14 11:14:52;;;;;;;;;;;;;;;23.32;38.11;97765.80;104186;1274;65108;-40
2024/04/14 11:17:19;;;;;;;;;;;;;;;23.28;38.13;97775.21;104004;1274;72873;-40
2024/04/14 11:19:46;;;;;;;;;;;;;;;23.22;38.01;97760.42;103704;1273;194309;-42
2024/04/14 11:22:17;;;;;;;;;;;;;;;23.30;37.87;97757.68;103982;1274;62986;-38
2024/04/14 11:24:48;;;;;;;;;;;;;;;23.37;38.14;97749.15;103841;1279;77018;-40
2024/04/14 11:27:15;;;;;;;;;;;;;;;23.55;38.11;97748.98;104242;1274;65704;-42
2024/04/14 11:29:43;;;;;;;;;;;;;;;23.72;37.81;97752.45;104661;1273;72348;-43
2024/04/14 11:32:33;;;;;;;;;;;;;;;23.79;37.43;97751.64;104019;1273;63595;-39
2024/04/14 11:35:01;;;;;;;;;;;;;;;23.75;37.47;97743.73;104420;1273;63006;-40
2024/04/14 11:37:29;;;;;;;;;;;;;;;23.63;37.78;97736.54;103955;1278;76223;-39
2024/04/14 11:39:57;;;;;;;;;;;;;;;23.61;37.39;97729.10;104266;1274;66098;-40
2024/04/14 11:42:25;;;;;;;;;;;;;;;23.56;37.33;97725.87;103893;1274;72323;-40
2024/04/14 11:44:52;;;;;;;;;;;;;;;23.55;38.92;97718.84;104598;1273;62880;-41
2024/04/14 11:47:19;;;;;;;;;;;;;;;23.69;38.19;97723.92;104404;1273;63003;-42
2024/04/14 11:49:46;;;;;;;;;;;;;;;23.79;37.88;97720.92;104800;1273;76294;-38
2024/04/14 11:52:14;;;;;;;;;;;;;;;23.82;37.76;97720.16;104298;1278;65993;-42
2024/04/14 11:54:41;;;;;;;;;;;;;;;23.81;38.13;97711.88;104627;1274;72380;-43
2024/04/14 11:57:08;;;;;;;;;;;;;;;23.76;38.83;97715.05;103960;1274;62839;-42
2024/04/14 11:59:35;;;;;;;;;;;;;;;23.77;39.17;97713.89;103953;1274;63004;-43
2024/04/14 12:02:02;;;;;;;;;;;;;;;23.83;39.20;97712.98;103956;1274;76860;-40
2024/04/14 12:04:29;;;;;;;;;;;;;;;23.86;38.81;97710.65;103942;1274;64821;-40
2024/04/14 12:06:56;;;;;;;;;;;;;;;23.85;39.15;97704.16;104150;1274;72601;-37
2024/04/14 12:09:23;;;;;;;;;;;;;;;23.85;39.16;97703.92;104098;1279;62916;-39
2024/04/14 12:11:50;;;;;;;;;;;;;;;23.83;39.25;97690.95;104235;1273;63044;-43
2024/04/14 12:14:17;;;;;;;;;;;;;;;23.83;39.75;97687.12;104129;1277;76022;-41
2024/04/14 12:16:45;;;;;;;;;;;;;;;23.94;40.05;97679.59;104285;1278;66290;-41
2024/04/14 12:19:12;;;;;;;;;;;;;;;24.08;39.78;97681.14;104208;1274;71557;-40
2024/04/14 12:21:39;;;;;;;;;;;;;;;24.11;39.62;97678.89;104037;1278;62872;-44
2024/04/14 12:24:08;;;;;;;;;;;;;;;24.05;39.52;97669.71;104356;1274;63022;-41
2024/04/14 12:26:37;;;;;;;;;;;;;;;24.00;40.12;97669.22;104378;1279;75077;-43
2024/04/14 12:29:04;;;;;;;;;;;;;;;24.10;39.30;97676.07;104024;1273;66149;-42
2024/04/14 12:31:31;;;;;;;;;;;;;;;24.21;38.80;97664.61;103990;1277;73043;-43
2024/04/14 12:33:58;;;;;;;;;;;;;;;24.33;38.86;97665.98;104247;1278;63154;-43
2024/04/14 12:36:25;;;;;;;;;;;;;;;24.54;38.45;97667.98;104331;1273;62935;-43